Terminal Aerodrome Forecast
Issued by NWS Sterling, VA

Home | Current Version | Previous Version | Text Only | Print | Product List | Glossary On
Versions: 1 2 3 4 5 6 7 8 9 10 11 12 13 14 15 16 17 18 19 20 21 22 23
000
FTUS41 KLWX 010500
TAFDCA
TAF
KDCA 010540Z 0106/0206 VRB03KT P6SM BKN250
     FM011300 16005KT P6SM BKN050
     FM012300 17007KT 6SM -RASNPL OVC050
     FM020300 13006KT 6SM -RAPL OVC040
     FM020500 15006KT 4SM RA BR OVC015=

USA.gov is the U.S. government's official web portal to all federal, state and local government web resources and services.